createdAt,value
2023-04-25T00:00:57.664Z,84.10
2023-04-25T00:06:10.264Z,84.00
2023-04-25T00:11:39.397Z,84.10
2023-04-25T00:16:57.787Z,83.60
2023-04-25T00:22:09.238Z,83.60
2023-04-25T00:27:52.504Z,83.60
2023-04-25T00:33:30.412Z,83.50
2023-04-25T00:38:39.747Z,83.70
2023-04-25T00:50:08.076Z,83.50
2023-04-25T00:55:29.836Z,83.40
2023-04-25T01:01:20.370Z,83.40
2023-04-25T01:06:31.898Z,83.20
2023-04-25T01:17:44.247Z,82.90
2023-04-25T01:23:42.086Z,82.90
2023-04-25T01:29:07.384Z,82.60
2023-04-25T01:34:33.924Z,82.60
2023-04-25T01:39:46.224Z,82.80
2023-04-25T01:45:16.809Z,82.80
2023-04-25T01:50:42.820Z,83.00
2023-04-25T01:55:54.729Z,83.40
2023-04-25T02:01:26.425Z,83.30
2023-04-25T02:06:40.140Z,83.00
2023-04-25T02:12:01.370Z,83.00
2023-04-25T02:17:25.121Z,82.80
2023-04-25T02:22:31.241Z,82.70
2023-04-25T02:33:25.572Z,82.80
2023-04-25T02:44:03.449Z,82.90
2023-04-25T02:49:31.835Z,83.00
2023-04-25T02:55:28.272Z,83.10
2023-04-25T03:07:07.315Z,83.20
2023-04-25T03:12:35.247Z,83.00
2023-04-25T03:18:05.746Z,83.30
2023-04-25T03:29:17.336Z,83.40
2023-04-25T03:34:37.970Z,83.40
2023-04-25T03:40:04.914Z,83.40
2023-04-25T03:45:18.926Z,83.40
2023-04-25T03:50:30.530Z,83.40
2023-04-25T03:55:43.564Z,83.40
2023-04-25T04:00:53.871Z,83.40
2023-04-25T04:11:39.312Z,82.90
2023-04-25T04:16:52.573Z,82.60
2023-04-25T04:21:57.823Z,82.50
2023-04-25T04:33:01.206Z,82.70
2023-04-25T04:38:12.510Z,82.80
2023-04-25T04:43:26.741Z,83.00
2023-04-25T04:48:53.791Z,83.20
2023-04-25T04:54:39.663Z,83.70
2023-04-25T05:24:02.702Z,85.50
2023-04-25T05:35:12.603Z,82.00
2023-04-25T05:41:13.324Z,78.30
2023-04-25T05:53:07.554Z,75.60
2023-04-25T05:58:36.657Z,76.60
2023-04-25T06:06:30.755Z,77.30
2023-04-25T06:33:10.156Z,74.90
2023-04-25T06:38:12.380Z,75.00
2023-04-25T06:43:15.946Z,74.50
2023-04-25T06:48:18.085Z,74.60
2023-04-25T06:53:20.419Z,74.60
2023-04-25T06:58:24.050Z,73.80
2023-04-25T07:03:26.374Z,73.50
2023-04-25T07:08:30.161Z,74.20
2023-04-25T07:13:33.792Z,75.80
2023-04-25T07:18:36.206Z,78.40
2023-04-25T07:23:38.354Z,80.10
2023-04-25T07:28:41.951Z,80.10
2023-04-25T07:33:44.239Z,81.70
2023-04-25T07:38:46.436Z,80.60
2023-04-25T07:43:50.578Z,76.10
2023-04-25T07:48:53.196Z,72.80
2023-04-25T07:53:56.006Z,72.00
2023-04-25T07:58:59.733Z,72.70
2023-04-25T08:04:02.158Z,73.70
2023-04-25T08:09:04.700Z,74.40
2023-04-25T08:14:08.456Z,75.20
2023-04-25T08:19:11.043Z,76.10
2023-04-25T08:24:13.164Z,77.30
2023-04-25T08:29:16.812Z,78.50
2023-04-25T08:34:19.043Z,76.90
2023-04-25T08:39:21.289Z,70.90
2023-04-25T08:44:25.878Z,68.20
2023-04-25T08:49:28.397Z,66.20
2023-04-25T08:54:35.393Z,65.50
2023-04-25T08:59:41.820Z,66.90
2023-04-25T09:04:44.974Z,69.30
2023-04-25T09:09:47.248Z,71.30
2023-04-25T09:15:06.438Z,72.30
2023-04-25T09:20:10.505Z,72.40
2023-04-25T09:25:13.815Z,74.80
2023-04-25T09:30:18.462Z,74.90
2023-04-25T09:35:26.330Z,74.70
2023-04-25T09:40:28.585Z,72.20
2023-04-25T09:45:32.498Z,69.70
2023-04-25T09:50:34.838Z,66.50
2023-04-25T09:55:37.361Z,66.60
2023-04-25T10:00:42.384Z,67.30
2023-04-25T10:05:45.609Z,64.80
2023-04-25T10:10:49.660Z,66.40
2023-04-25T10:15:54.662Z,62.80
2023-04-25T10:20:58.836Z,59.80
2023-04-25T10:26:01.537Z,59.60
2023-04-25T10:31:09.167Z,61.10
2023-04-25T10:36:13.786Z,60.70
2023-04-25T10:41:16.001Z,61.70
2023-04-25T10:46:23.395Z,63.10
2023-04-25T10:51:27.697Z,62.80
2023-04-25T10:56:32.062Z,62.10
2023-04-25T11:01:40.167Z,61.00
2023-04-25T11:06:58.271Z,60.40
2023-04-25T11:12:10.491Z,62.00
2023-04-25T11:17:14.015Z,60.00
2023-04-25T11:22:16.330Z,61.10
2023-04-25T11:27:18.723Z,59.90
2023-04-25T11:32:22.963Z,57.40
2023-04-25T11:37:26.159Z,57.80
2023-04-25T11:42:28.472Z,57.10
2023-04-25T11:47:33.464Z,57.40
2023-04-25T11:52:39.499Z,54.80
2023-04-25T11:57:42.613Z,54.10
2023-04-25T12:02:47.723Z,55.20
2023-04-25T12:07:50.137Z,55.50
2023-04-25T12:12:52.527Z,56.00
2023-04-25T12:17:56.365Z,56.80
2023-04-25T12:22:58.959Z,56.00
2023-04-25T12:28:14.316Z,56.00
2023-04-25T12:33:18.710Z,55.10
2023-04-25T12:38:25.583Z,55.10
2023-04-25T12:43:27.950Z,55.20
2023-04-25T12:48:31.637Z,55.70
2023-04-25T12:53:35.549Z,55.90
2023-04-25T12:58:38.122Z,56.40
2023-04-25T13:03:42.632Z,56.80
2023-04-25T13:08:45.306Z,56.90
2023-04-25T13:13:47.501Z,58.30
2023-04-25T13:18:51.137Z,58.60
2023-04-25T13:23:53.941Z,58.80
2023-04-25T13:28:56.900Z,58.60
2023-04-25T13:34:00.581Z,58.70
2023-04-25T13:39:02.999Z,58.60
2023-04-25T13:44:05.473Z,57.30
2023-04-25T13:49:12.651Z,58.40
2023-04-25T13:54:15.536Z,59.60
2023-04-25T13:59:17.851Z,60.50
2023-04-25T14:04:21.702Z,59.00
2023-04-25T14:09:24.039Z,57.40
2023-04-25T14:14:26.310Z,57.10
2023-04-25T14:19:30.414Z,56.50
2023-04-25T14:24:32.675Z,55.60
2023-04-25T14:29:35.265Z,55.40
2023-04-25T14:34:38.919Z,56.00
2023-04-25T14:39:41.092Z,56.00
2023-04-25T14:44:43.423Z,55.80
2023-04-25T14:49:47.184Z,56.20
2023-04-25T14:54:49.299Z,57.40
2023-04-25T14:59:51.693Z,57.90
2023-04-25T15:04:55.473Z,58.50
2023-04-25T15:09:57.782Z,58.00
2023-04-25T15:14:59.952Z,58.20
2023-04-25T15:20:07.361Z,58.50
2023-04-25T15:25:11.089Z,58.80
2023-04-25T15:30:15.010Z,59.60
2023-04-25T15:35:18.637Z,59.40
2023-04-25T15:40:21.075Z,59.40
2023-04-25T15:45:25.306Z,59.50
2023-04-25T15:50:28.882Z,59.90
2023-04-25T15:55:31.170Z,59.90
2023-04-25T16:00:33.323Z,58.70
2023-04-25T16:05:37.335Z,58.60
2023-04-25T16:10:39.545Z,58.70
2023-04-25T16:15:41.730Z,58.40
2023-04-25T16:20:45.412Z,59.30
2023-04-25T16:25:47.692Z,59.60
2023-04-25T16:30:49.961Z,60.10
2023-04-25T16:35:53.515Z,60.40
2023-04-25T16:40:56.063Z,60.30
2023-04-25T16:45:58.382Z,60.00
2023-04-25T16:51:01.925Z,59.80
2023-04-25T16:56:04.270Z,59.60
2023-04-25T17:01:06.515Z,59.50
2023-04-25T17:06:10.695Z,59.70
2023-04-25T17:11:12.886Z,59.70
2023-04-25T17:16:15.133Z,59.50
2023-04-25T17:21:18.878Z,59.50
2023-04-25T17:26:21.077Z,59.60
2023-04-25T17:31:23.404Z,59.90
2023-04-25T17:36:27.247Z,60.40
2023-04-25T17:41:29.385Z,60.70
2023-04-25T17:46:31.556Z,60.70
2023-04-25T17:51:35.136Z,61.30
2023-04-25T17:56:37.546Z,61.70
2023-04-25T18:01:42.172Z,62.10
2023-04-25T18:06:47.380Z,61.90
2023-04-25T18:11:51.292Z,61.70
2023-04-25T18:16:54.248Z,61.60
2023-04-25T18:21:57.787Z,61.80
2023-04-25T18:27:00.728Z,62.10
2023-04-25T18:32:02.959Z,62.40
2023-04-25T18:37:06.569Z,62.50
2023-04-25T18:42:08.808Z,63.00
2023-04-25T18:47:11.050Z,63.30
2023-04-25T18:52:14.626Z,63.50
2023-04-25T18:57:16.845Z,63.80
2023-04-25T19:02:19.112Z,63.80
2023-04-25T19:07:22.944Z,64.00
2023-04-25T19:12:25.499Z,64.30
2023-04-25T19:17:30.135Z,64.30
2023-04-25T19:22:34.313Z,64.80
2023-04-25T19:27:36.514Z,65.40
2023-04-25T19:32:39.361Z,65.50
2023-04-25T19:37:43.213Z,65.60
2023-04-25T19:42:45.698Z,65.70
2023-04-25T19:47:47.942Z,65.80
2023-04-25T19:52:52.313Z,65.80
2023-04-25T19:57:54.513Z,65.80
2023-04-25T20:02:56.760Z,65.90
2023-04-25T20:08:00.434Z,66.60
2023-04-25T20:13:02.996Z,67.30
2023-04-25T20:18:05.228Z,67.40
2023-04-25T20:23:08.889Z,67.60
2023-04-25T20:28:11.125Z,67.60
2023-04-25T20:33:13.365Z,67.60
2023-04-25T20:38:16.944Z,67.70
2023-04-25T20:43:19.075Z,67.80
2023-04-25T20:48:21.462Z,67.90
2023-04-25T20:53:25.091Z,68.10
2023-04-25T20:58:27.296Z,68.40
2023-04-25T21:03:29.755Z,68.50
2023-04-25T21:08:33.396Z,68.80
2023-04-25T21:13:35.723Z,68.80
2023-04-25T21:18:37.892Z,68.80
2023-04-25T21:23:42.531Z,69.10
2023-04-25T21:28:44.659Z,69.60
2023-04-25T21:33:46.768Z,69.40
2023-04-25T21:38:50.465Z,69.60
2023-04-25T21:43:52.872Z,69.90
2023-04-25T21:48:55.322Z,69.80
2023-04-25T21:53:59.471Z,69.70
2023-04-25T21:59:01.593Z,69.70
2023-04-25T22:04:04.027Z,69.80
2023-04-25T22:09:07.881Z,70.10
2023-04-25T22:14:10.265Z,70.20
2023-04-25T22:19:12.376Z,70.20
2023-04-25T22:24:16.051Z,70.40
2023-04-25T22:29:18.311Z,70.60
2023-04-25T22:34:20.866Z,70.60
2023-04-25T22:39:24.518Z,70.60
2023-04-25T22:44:26.670Z,70.70
2023-04-25T22:49:28.867Z,70.50
2023-04-25T22:54:32.447Z,70.60
2023-04-25T22:59:34.636Z,70.90
2023-04-25T23:04:36.898Z,71.00
2023-04-25T23:09:40.606Z,71.20
2023-04-25T23:14:42.780Z,71.40
2023-04-25T23:19:44.939Z,72.60
2023-04-25T23:24:48.510Z,72.00
2023-04-25T23:29:53.654Z,72.20
2023-04-25T23:34:55.760Z,72.70
2023-04-25T23:39:59.377Z,72.70
2023-04-25T23:45:01.569Z,72.80
2023-04-25T23:50:04.230Z,72.60
2023-04-25T23:55:08.473Z,72.70
